sensor_id;sensor_type;location;lat;lon;timestamp;P1;durP1;ratioP1;P2;durP2;ratioP2
23586;SDS011;11971;51.148;4.104;2023-08-06T00:00:18;121.20;;;40.67;;
23586;SDS011;11971;51.148;4.104;2023-08-06T00:02:45;116.13;;;39.70;;
23586;SDS011;11971;51.148;4.104;2023-08-06T00:05:12;117.85;;;40.05;;
23586;SDS011;11971;51.148;4.104;2023-08-06T00:07:42;119.13;;;40.17;;
23586;SDS011;11971;51.148;4.104;2023-08-06T00:10:09;117.53;;;40.10;;
23586;SDS011;11971;51.148;4.104;2023-08-06T00:12:36;117.57;;;40.40;;
23586;SDS011;11971;51.148;4.104;2023-08-06T00:15:03;117.68;;;40.17;;
23586;SDS011;11971;51.148;4.104;2023-08-06T00:17:32;117.35;;;40.15;;
23586;SDS011;11971;51.148;4.104;2023-08-06T00:22:29;120.70;;;40.65;;
23586;SDS011;11971;51.148;4.104;2023-08-06T00:24:56;119.00;;;40.83;;
23586;SDS011;11971;51.148;4.104;2023-08-06T00:27:23;121.20;;;41.05;;
23586;SDS011;11971;51.148;4.104;2023-08-06T00:29:50;122.45;;;41.28;;
23586;SDS011;11971;51.148;4.104;2023-08-06T00:32:17;121.00;;;41.05;;
23586;SDS011;11971;51.148;4.104;2023-08-06T00:34:45;121.03;;;41.33;;
23586;SDS011;11971;51.148;4.104;2023-08-06T00:37:14;120.85;;;40.70;;
23586;SDS011;11971;51.148;4.104;2023-08-06T00:39:41;119.40;;;40.80;;
23586;SDS011;11971;51.148;4.104;2023-08-06T00:42:08;122.85;;;41.10;;
23586;SDS011;11971;51.148;4.104;2023-08-06T00:44:34;120.22;;;40.33;;
23586;SDS011;11971;51.148;4.104;2023-08-06T00:47:01;119.13;;;40.67;;
23586;SDS011;11971;51.148;4.104;2023-08-06T00:49:29;122.18;;;40.60;;
23586;SDS011;11971;51.148;4.104;2023-08-06T00:51:57;119.40;;;40.92;;
23586;SDS011;11971;51.148;4.104;2023-08-06T00:54:24;117.75;;;40.67;;
23586;SDS011;11971;51.148;4.104;2023-08-06T00:56:53;117.20;;;40.40;;
23586;SDS011;11971;51.148;4.104;2023-08-06T00:59:22;119.93;;;40.42;;
23586;SDS011;11971;51.148;4.104;2023-08-06T01:01:49;120.97;;;40.83;;
23586;SDS011;11971;51.148;4.104;2023-08-06T01:04:16;122.32;;;40.63;;
23586;SDS011;11971;51.148;4.104;2023-08-06T01:06:44;123.72;;;40.85;;
23586;SDS011;11971;51.148;4.104;2023-08-06T01:09:18;120.93;;;40.78;;
23586;SDS011;11971;51.148;4.104;2023-08-06T01:11:53;122.07;;;41.05;;
23586;SDS011;11971;51.148;4.104;2023-08-06T01:14:26;119.53;;;40.65;;
23586;SDS011;11971;51.148;4.104;2023-08-06T01:16:55;122.15;;;40.92;;
23586;SDS011;11971;51.148;4.104;2023-08-06T01:19:22;122.55;;;42.22;;
23586;SDS011;11971;51.148;4.104;2023-08-06T01:21:51;122.10;;;41.15;;
23586;SDS011;11971;51.148;4.104;2023-08-06T01:24:17;125.38;;;42.13;;
23586;SDS011;11971;51.148;4.104;2023-08-06T01:26:45;122.18;;;41.28;;
23586;SDS011;11971;51.148;4.104;2023-08-06T01:29:19;121.15;;;40.92;;
23586;SDS011;11971;51.148;4.104;2023-08-06T01:31:50;120.53;;;40.75;;
23586;SDS011;11971;51.148;4.104;2023-08-06T01:34:19;120.30;;;40.70;;
23586;SDS011;11971;51.148;4.104;2023-08-06T01:36:47;122.57;;;41.53;;
23586;SDS011;11971;51.148;4.104;2023-08-06T01:39:16;119.90;;;40.95;;
23586;SDS011;11971;51.148;4.104;2023-08-06T01:41:45;119.07;;;41.35;;
23586;SDS011;11971;51.148;4.104;2023-08-06T01:44:12;123.70;;;41.85;;
23586;SDS011;11971;51.148;4.104;2023-08-06T01:46:39;122.57;;;41.33;;
23586;SDS011;11971;51.148;4.104;2023-08-06T01:49:06;121.60;;;42.33;;
23586;SDS011;11971;51.148;4.104;2023-08-06T01:51:33;120.35;;;41.47;;
23586;SDS011;11971;51.148;4.104;2023-08-06T01:54:01;123.68;;;42.15;;
23586;SDS011;11971;51.148;4.104;2023-08-06T01:56:30;122.13;;;41.88;;
23586;SDS011;11971;51.148;4.104;2023-08-06T01:58:56;131.17;;;41.63;;
23586;SDS011;11971;51.148;4.104;2023-08-06T02:01:23;119.93;;;41.60;;
23586;SDS011;11971;51.148;4.104;2023-08-06T02:03:50;120.57;;;41.20;;
23586;SDS011;11971;51.148;4.104;2023-08-06T02:06:17;123.75;;;42.10;;
23586;SDS011;11971;51.148;4.104;2023-08-06T02:08:43;122.97;;;41.58;;
23586;SDS011;11971;51.148;4.104;2023-08-06T02:11:10;123.93;;;42.00;;
23586;SDS011;11971;51.148;4.104;2023-08-06T02:13:38;125.43;;;41.80;;
23586;SDS011;11971;51.148;4.104;2023-08-06T02:16:06;119.20;;;41.30;;
23586;SDS011;11971;51.148;4.104;2023-08-06T02:18:33;120.75;;;41.58;;
23586;SDS011;11971;51.148;4.104;2023-08-06T02:21:00;128.05;;;42.30;;
23586;SDS011;11971;51.148;4.104;2023-08-06T02:23:27;121.93;;;41.63;;
23586;SDS011;11971;51.148;4.104;2023-08-06T02:25:58;120.93;;;41.22;;
23586;SDS011;11971;51.148;4.104;2023-08-06T02:28:25;119.75;;;41.17;;
23586;SDS011;11971;51.148;4.104;2023-08-06T02:30:53;123.40;;;41.65;;
23586;SDS011;11971;51.148;4.104;2023-08-06T02:33:21;120.65;;;42.00;;
23586;SDS011;11971;51.148;4.104;2023-08-06T02:38:23;118.28;;;40.88;;
23586;SDS011;11971;51.148;4.104;2023-08-06T02:40:52;113.85;;;39.08;;
23586;SDS011;11971;51.148;4.104;2023-08-06T02:43:18;114.45;;;39.33;;
23586;SDS011;11971;51.148;4.104;2023-08-06T02:45:45;115.47;;;39.40;;
23586;SDS011;11971;51.148;4.104;2023-08-06T02:48:13;115.57;;;39.88;;
23586;SDS011;11971;51.148;4.104;2023-08-06T02:50:40;118.77;;;40.67;;
23586;SDS011;11971;51.148;4.104;2023-08-06T02:53:07;117.43;;;40.22;;
23586;SDS011;11971;51.148;4.104;2023-08-06T02:55:34;114.68;;;39.25;;
23586;SDS011;11971;51.148;4.104;2023-08-06T02:58:01;116.15;;;39.35;;
23586;SDS011;11971;51.148;4.104;2023-08-06T03:00:28;114.10;;;39.67;;
23586;SDS011;11971;51.148;4.104;2023-08-06T03:02:55;116.95;;;40.70;;
23586;SDS011;11971;51.148;4.104;2023-08-06T03:05:25;117.00;;;41.13;;
23586;SDS011;11971;51.148;4.104;2023-08-06T03:07:51;117.40;;;41.03;;
23586;SDS011;11971;51.148;4.104;2023-08-06T03:10:18;115.07;;;40.15;;
23586;SDS011;11971;51.148;4.104;2023-08-06T03:12:45;118.22;;;40.65;;
23586;SDS011;11971;51.148;4.104;2023-08-06T03:15:12;113.88;;;39.97;;
23586;SDS011;11971;51.148;4.104;2023-08-06T03:17:38;117.32;;;39.70;;
23586;SDS011;11971;51.148;4.104;2023-08-06T03:20:06;113.53;;;39.42;;
23586;SDS011;11971;51.148;4.104;2023-08-06T03:22:35;111.47;;;38.63;;
23586;SDS011;11971;51.148;4.104;2023-08-06T03:25:02;111.22;;;38.88;;
23586;SDS011;11971;51.148;4.104;2023-08-06T03:29:57;108.82;;;38.10;;
23586;SDS011;11971;51.148;4.104;2023-08-06T03:32:26;109.85;;;38.85;;
23586;SDS011;11971;51.148;4.104;2023-08-06T03:34:52;110.00;;;38.45;;
23586;SDS011;11971;51.148;4.104;2023-08-06T03:37:19;109.80;;;38.33;;
23586;SDS011;11971;51.148;4.104;2023-08-06T03:39:47;108.68;;;37.90;;
23586;SDS011;11971;51.148;4.104;2023-08-06T03:42:14;109.20;;;38.07;;
23586;SDS011;11971;51.148;4.104;2023-08-06T03:44:41;108.22;;;37.95;;
23586;SDS011;11971;51.148;4.104;2023-08-06T03:47:08;108.43;;;38.33;;
23586;SDS011;11971;51.148;4.104;2023-08-06T03:49:35;113.47;;;38.92;;
23586;SDS011;11971;51.148;4.104;2023-08-06T03:52:02;116.72;;;39.42;;
23586;SDS011;11971;51.148;4.104;2023-08-06T03:54:29;118.40;;;39.40;;
23586;SDS011;11971;51.148;4.104;2023-08-06T03:56:57;114.78;;;38.88;;
23586;SDS011;11971;51.148;4.104;2023-08-06T03:59:26;118.07;;;40.05;;
23586;SDS011;11971;51.148;4.104;2023-08-06T04:01:52;120.05;;;39.97;;
23586;SDS011;11971;51.148;4.104;2023-08-06T04:04:19;120.05;;;39.90;;
23586;SDS011;11971;51.148;4.104;2023-08-06T04:06:46;119.72;;;40.10;;
23586;SDS011;11971;51.148;4.104;2023-08-06T04:09:13;113.85;;;39.80;;
23586;SDS011;11971;51.148;4.104;2023-08-06T04:11:39;114.82;;;39.30;;
23586;SDS011;11971;51.148;4.104;2023-08-06T04:14:08;115.72;;;40.42;;
23586;SDS011;11971;51.148;4.104;2023-08-06T04:16:34;112.00;;;39.53;;
23586;SDS011;11971;51.148;4.104;2023-08-06T04:19:01;118.47;;;40.33;;
23586;SDS011;11971;51.148;4.104;2023-08-06T04:21:28;112.90;;;40.38;;
23586;SDS011;11971;51.148;4.104;2023-08-06T04:23:55;118.95;;;40.78;;
23586;SDS011;11971;51.148;4.104;2023-08-06T04:26:22;115.68;;;40.10;;
23586;SDS011;11971;51.148;4.104;2023-08-06T04:28:49;118.53;;;40.42;;
23586;SDS011;11971;51.148;4.104;2023-08-06T04:31:17;118.25;;;41.17;;
23586;SDS011;11971;51.148;4.104;2023-08-06T04:33:44;115.77;;;41.27;;
23586;SDS011;11971;51.148;4.104;2023-08-06T04:36:11;114.07;;;41.17;;
23586;SDS011;11971;51.148;4.104;2023-08-06T04:38:38;118.45;;;40.30;;
23586;SDS011;11971;51.148;4.104;2023-08-06T04:41:06;117.97;;;40.70;;
23586;SDS011;11971;51.148;4.104;2023-08-06T04:43:33;112.28;;;39.78;;
23586;SDS011;11971;51.148;4.104;2023-08-06T04:46:00;116.38;;;40.60;;
23586;SDS011;11971;51.148;4.104;2023-08-06T04:48:28;116.18;;;39.97;;
23586;SDS011;11971;51.148;4.104;2023-08-06T04:50:55;111.38;;;40.55;;
23586;SDS011;11971;51.148;4.104;2023-08-06T04:53:21;120.30;;;40.17;;
23586;SDS011;11971;51.148;4.104;2023-08-06T04:55:48;116.28;;;39.22;;
23586;SDS011;11971;51.148;4.104;2023-08-06T04:58:15;118.40;;;39.17;;
23586;SDS011;11971;51.148;4.104;2023-08-06T05:00:42;121.10;;;39.60;;
23586;SDS011;11971;51.148;4.104;2023-08-06T05:03:08;118.18;;;39.08;;
23586;SDS011;11971;51.148;4.104;2023-08-06T05:05:37;115.43;;;39.15;;
23586;SDS011;11971;51.148;4.104;2023-08-06T05:08:06;112.75;;;39.03;;
23586;SDS011;11971;51.148;4.104;2023-08-06T05:10:33;116.55;;;38.50;;
23586;SDS011;11971;51.148;4.104;2023-08-06T05:13:00;111.60;;;38.42;;
23586;SDS011;11971;51.148;4.104;2023-08-06T05:15:26;112.32;;;38.47;;
23586;SDS011;11971;51.148;4.104;2023-08-06T05:17:53;116.97;;;38.38;;
23586;SDS011;11971;51.148;4.104;2023-08-06T05:20:20;113.93;;;37.83;;
23586;SDS011;11971;51.148;4.104;2023-08-06T05:22:48;110.13;;;38.17;;
23586;SDS011;11971;51.148;4.104;2023-08-06T05:27:42;111.45;;;38.20;;
23586;SDS011;11971;51.148;4.104;2023-08-06T05:30:10;118.95;;;38.55;;
23586;SDS011;11971;51.148;4.104;2023-08-06T05:32:37;109.57;;;38.17;;
23586;SDS011;11971;51.148;4.104;2023-08-06T05:35:04;112.13;;;38.58;;
23586;SDS011;11971;51.148;4.104;2023-08-06T05:37:32;108.78;;;38.15;;
23586;SDS011;11971;51.148;4.104;2023-08-06T05:40:00;111.07;;;38.53;;
23586;SDS011;11971;51.148;4.104;2023-08-06T05:42:29;111.55;;;37.97;;
23586;SDS011;11971;51.148;4.104;2023-08-06T05:44:55;109.40;;;38.00;;
23586;SDS011;11971;51.148;4.104;2023-08-06T05:47:22;110.63;;;38.03;;
23586;SDS011;11971;51.148;4.104;2023-08-06T05:49:49;109.43;;;38.20;;
23586;SDS011;11971;51.148;4.104;2023-08-06T05:52:15;109.03;;;37.85;;
23586;SDS011;11971;51.148;4.104;2023-08-06T05:54:41;113.07;;;38.45;;
23586;SDS011;11971;51.148;4.104;2023-08-06T05:57:10;114.03;;;38.90;;
23586;SDS011;11971;51.148;4.104;2023-08-06T05:59:37;116.30;;;39.10;;
23586;SDS011;11971;51.148;4.104;2023-08-06T06:02:04;111.68;;;38.85;;
23586;SDS011;11971;51.148;4.104;2023-08-06T06:04:30;113.63;;;38.47;;
23586;SDS011;11971;51.148;4.104;2023-08-06T06:06:59;113.33;;;38.90;;
23586;SDS011;11971;51.148;4.104;2023-08-06T06:09:25;111.80;;;38.17;;
23586;SDS011;11971;51.148;4.104;2023-08-06T06:11:52;111.55;;;38.40;;
23586;SDS011;11971;51.148;4.104;2023-08-06T06:14:20;111.25;;;38.08;;
23586;SDS011;11971;51.148;4.104;2023-08-06T06:16:47;114.23;;;38.73;;
23586;SDS011;11971;51.148;4.104;2023-08-06T06:19:14;113.07;;;38.53;;
23586;SDS011;11971;51.148;4.104;2023-08-06T06:21:41;121.38;;;39.55;;
23586;SDS011;11971;51.148;4.104;2023-08-06T06:24:07;113.57;;;38.75;;
23586;SDS011;11971;51.148;4.104;2023-08-06T06:26:34;111.72;;;38.88;;
23586;SDS011;11971;51.148;4.104;2023-08-06T06:29:01;113.00;;;38.95;;
23586;SDS011;11971;51.148;4.104;2023-08-06T06:31:29;118.78;;;39.53;;
23586;SDS011;11971;51.148;4.104;2023-08-06T06:33:56;112.70;;;39.13;;
23586;SDS011;11971;51.148;4.104;2023-08-06T06:36:23;115.07;;;38.55;;
23586;SDS011;11971;51.148;4.104;2023-08-06T06:38:50;113.28;;;38.30;;
23586;SDS011;11971;51.148;4.104;2023-08-06T06:41:17;114.35;;;38.45;;
23586;SDS011;11971;51.148;4.104;2023-08-06T06:43:44;110.82;;;37.42;;
23586;SDS011;11971;51.148;4.104;2023-08-06T06:46:10;113.28;;;37.90;;
23586;SDS011;11971;51.148;4.104;2023-08-06T06:48:39;111.05;;;37.63;;
23586;SDS011;11971;51.148;4.104;2023-08-06T06:51:06;111.70;;;37.45;;
23586;SDS011;11971;51.148;4.104;2023-08-06T06:53:32;109.50;;;37.72;;
23586;SDS011;11971;51.148;4.104;2023-08-06T06:56:01;107.43;;;37.33;;
23586;SDS011;11971;51.148;4.104;2023-08-06T06:58:28;114.00;;;37.72;;
23586;SDS011;11971;51.148;4.104;2023-08-06T07:00:55;111.80;;;37.33;;
23586;SDS011;11971;51.148;4.104;2023-08-06T07:03:22;115.25;;;37.10;;
23586;SDS011;11971;51.148;4.104;2023-08-06T07:05:50;111.72;;;37.53;;
23586;SDS011;11971;51.148;4.104;2023-08-06T07:08:16;105.60;;;37.00;;
23586;SDS011;11971;51.148;4.104;2023-08-06T07:10:43;115.32;;;37.20;;
23586;SDS011;11971;51.148;4.104;2023-08-06T07:13:10;107.43;;;37.00;;
23586;SDS011;11971;51.148;4.104;2023-08-06T07:15:37;113.22;;;37.03;;
23586;SDS011;11971;51.148;4.104;2023-08-06T07:18:03;115.50;;;37.63;;
23586;SDS011;11971;51.148;4.104;2023-08-06T07:20:30;111.43;;;37.35;;
23586;SDS011;11971;51.148;4.104;2023-08-06T07:22:59;113.80;;;37.53;;
23586;SDS011;11971;51.148;4.104;2023-08-06T07:25:27;112.55;;;37.60;;
23586;SDS011;11971;51.148;4.104;2023-08-06T07:27:53;112.93;;;37.70;;
23586;SDS011;11971;51.148;4.104;2023-08-06T07:30:21;110.22;;;37.20;;
23586;SDS011;11971;51.148;4.104;2023-08-06T07:32:48;112.22;;;37.55;;
23586;SDS011;11971;51.148;4.104;2023-08-06T07:35:15;110.72;;;37.42;;
23586;SDS011;11971;51.148;4.104;2023-08-06T07:37:42;110.05;;;37.28;;
23586;SDS011;11971;51.148;4.104;2023-08-06T07:40:11;110.90;;;37.50;;
23586;SDS011;11971;51.148;4.104;2023-08-06T07:42:38;119.43;;;37.65;;
23586;SDS011;11971;51.148;4.104;2023-08-06T07:45:05;112.20;;;37.38;;
23586;SDS011;11971;51.148;4.104;2023-08-06T07:47:35;113.55;;;37.80;;
23586;SDS011;11971;51.148;4.104;2023-08-06T07:50:02;110.88;;;37.35;;
23586;SDS011;11971;51.148;4.104;2023-08-06T07:52:30;112.47;;;37.53;;
23586;SDS011;11971;51.148;4.104;2023-08-06T07:54:56;107.55;;;37.17;;
23586;SDS011;11971;51.148;4.104;2023-08-06T07:57:25;107.68;;;36.80;;
23586;SDS011;11971;51.148;4.104;2023-08-06T07:59:51;108.70;;;37.33;;
23586;SDS011;11971;51.148;4.104;2023-08-06T08:02:18;109.88;;;36.97;;
23586;SDS011;11971;51.148;4.104;2023-08-06T08:04:45;114.13;;;37.22;;
23586;SDS011;11971;51.148;4.104;2023-08-06T08:07:12;114.22;;;37.00;;
23586;SDS011;11971;51.148;4.104;2023-08-06T08:09:39;111.75;;;37.22;;
23586;SDS011;11971;51.148;4.104;2023-08-06T08:12:06;114.15;;;37.22;;
23586;SDS011;11971;51.148;4.104;2023-08-06T08:14:34;112.68;;;37.72;;
23586;SDS011;11971;51.148;4.104;2023-08-06T08:17:02;107.72;;;37.63;;
23586;SDS011;11971;51.148;4.104;2023-08-06T08:19:29;110.07;;;37.38;;
23586;SDS011;11971;51.148;4.104;2023-08-06T08:21:56;113.35;;;36.92;;
23586;SDS011;11971;51.148;4.104;2023-08-06T08:24:23;115.75;;;37.70;;
23586;SDS011;11971;51.148;4.104;2023-08-06T08:26:50;111.13;;;37.42;;
23586;SDS011;11971;51.148;4.104;2023-08-06T08:29:17;112.22;;;37.40;;
23586;SDS011;11971;51.148;4.104;2023-08-06T08:31:45;112.30;;;37.45;;
23586;SDS011;11971;51.148;4.104;2023-08-06T08:34:14;114.10;;;37.45;;
23586;SDS011;11971;51.148;4.104;2023-08-06T08:36:41;114.70;;;37.63;;
23586;SDS011;11971;51.148;4.104;2023-08-06T08:39:07;111.85;;;37.78;;
23586;SDS011;11971;51.148;4.104;2023-08-06T08:41:35;111.97;;;37.10;;
23586;SDS011;11971;51.148;4.104;2023-08-06T08:44:02;110.15;;;37.60;;
23586;SDS011;11971;51.148;4.104;2023-08-06T08:46:31;114.60;;;37.38;;
23586;SDS011;11971;51.148;4.104;2023-08-06T08:49:00;111.85;;;36.95;;
23586;SDS011;11971;51.148;4.104;2023-08-06T08:53:54;111.40;;;37.20;;
23586;SDS011;11971;51.148;4.104;2023-08-06T08:56:23;112.55;;;37.85;;
23586;SDS011;11971;51.148;4.104;2023-08-06T08:58:50;115.30;;;37.33;;
23586;SDS011;11971;51.148;4.104;2023-08-06T09:01:18;112.97;;;37.33;;
23586;SDS011;11971;51.148;4.104;2023-08-06T09:03:45;109.38;;;37.10;;
23586;SDS011;11971;51.148;4.104;2023-08-06T09:06:14;109.50;;;37.47;;
23586;SDS011;11971;51.148;4.104;2023-08-06T09:11:09;111.40;;;37.42;;
23586;SDS011;11971;51.148;4.104;2023-08-06T09:13:36;111.75;;;37.00;;
23586;SDS011;11971;51.148;4.104;2023-08-06T09:16:03;116.35;;;37.63;;
23586;SDS011;11971;51.148;4.104;2023-08-06T09:18:30;114.55;;;38.08;;
23586;SDS011;11971;51.148;4.104;2023-08-06T09:20:57;115.93;;;37.38;;
23586;SDS011;11971;51.148;4.104;2023-08-06T09:23:28;114.90;;;37.95;;
23586;SDS011;11971;51.148;4.104;2023-08-06T09:25:56;113.75;;;37.42;;
23586;SDS011;11971;51.148;4.104;2023-08-06T09:28:23;112.65;;;37.17;;
23586;SDS011;11971;51.148;4.104;2023-08-06T09:30:51;110.90;;;37.33;;
23586;SDS011;11971;51.148;4.104;2023-08-06T09:33:21;111.47;;;37.40;;
23586;SDS011;11971;51.148;4.104;2023-08-06T09:35:48;115.63;;;37.67;;
23586;SDS011;11971;51.148;4.104;2023-08-06T09:38:15;113.78;;;36.97;;
23586;SDS011;11971;51.148;4.104;2023-08-06T09:40:44;111.80;;;36.92;;
23586;SDS011;11971;51.148;4.104;2023-08-06T09:43:11;112.75;;;37.03;;
23586;SDS011;11971;51.148;4.104;2023-08-06T09:45:38;114.13;;;37.42;;
23586;SDS011;11971;51.148;4.104;2023-08-06T09:48:05;112.13;;;37.80;;
23586;SDS011;11971;51.148;4.104;2023-08-06T09:50:33;110.60;;;37.53;;
23586;SDS011;11971;51.148;4.104;2023-08-06T09:53:02;117.55;;;37.28;;
23586;SDS011;11971;51.148;4.104;2023-08-06T09:55:29;110.40;;;37.47;;
23586;SDS011;11971;51.148;4.104;2023-08-06T09:57:58;112.57;;;37.15;;
23586;SDS011;11971;51.148;4.104;2023-08-06T10:00:26;110.22;;;37.67;;
23586;SDS011;11971;51.148;4.104;2023-08-06T10:03:00;117.22;;;37.45;;
23586;SDS011;11971;51.148;4.104;2023-08-06T10:05:28;112.07;;;37.58;;
23586;SDS011;11971;51.148;4.104;2023-08-06T10:07:56;110.80;;;37.55;;
23586;SDS011;11971;51.148;4.104;2023-08-06T10:10:23;108.90;;;36.95;;
23586;SDS011;11971;51.148;4.104;2023-08-06T10:12:52;116.03;;;37.78;;
23586;SDS011;11971;51.148;4.104;2023-08-06T10:15:23;110.85;;;37.05;;
23586;SDS011;11971;51.148;4.104;2023-08-06T10:17:52;109.22;;;36.67;;
23586;SDS011;11971;51.148;4.104;2023-08-06T10:20:22;111.60;;;37.35;;
23586;SDS011;11971;51.148;4.104;2023-08-06T10:36:07;111.15;;;37.28;;
23586;SDS011;11971;51.148;4.104;2023-08-06T10:38:37;109.40;;;37.10;;
23586;SDS011;11971;51.148;4.104;2023-08-06T10:41:22;114.80;;;38.55;;
23586;SDS011;11971;51.148;4.104;2023-08-06T10:49:28;109.28;;;37.13;;
23586;SDS011;11971;51.148;4.104;2023-08-06T10:51:56;110.20;;;36.70;;
23586;SDS011;11971;51.148;4.104;2023-08-06T10:54:23;115.90;;;37.40;;
23586;SDS011;11971;51.148;4.104;2023-08-06T10:56:53;107.93;;;37.10;;
23586;SDS011;11971;51.148;4.104;2023-08-06T10:59:20;106.55;;;37.40;;
23586;SDS011;11971;51.148;4.104;2023-08-06T11:01:46;109.78;;;37.25;;
23586;SDS011;11971;51.148;4.104;2023-08-06T11:04:13;109.25;;;36.75;;
23586;SDS011;11971;51.148;4.104;2023-08-06T11:06:42;111.15;;;37.13;;
23586;SDS011;11971;51.148;4.104;2023-08-06T11:09:10;107.65;;;37.20;;
23586;SDS011;11971;51.148;4.104;2023-08-06T11:11:37;113.57;;;37.03;;
23586;SDS011;11971;51.148;4.104;2023-08-06T11:14:04;109.35;;;36.70;;
23586;SDS011;11971;51.148;4.104;2023-08-06T11:16:30;110.88;;;37.10;;
23586;SDS011;11971;51.148;4.104;2023-08-06T11:18:57;109.75;;;36.85;;
23586;SDS011;11971;51.148;4.104;2023-08-06T11:21:25;109.40;;;36.90;;
23586;SDS011;11971;51.148;4.104;2023-08-06T11:23:52;107.38;;;37.15;;
23586;SDS011;11971;51.148;4.104;2023-08-06T11:26:21;107.38;;;37.20;;
23586;SDS011;11971;51.148;4.104;2023-08-06T11:28:48;110.28;;;37.33;;
23586;SDS011;11971;51.148;4.104;2023-08-06T11:31:18;115.68;;;37.25;;
23586;SDS011;11971;51.148;4.104;2023-08-06T11:33:46;110.05;;;37.58;;
23586;SDS011;11971;51.148;4.104;2023-08-06T11:36:16;113.22;;;37.72;;
23586;SDS011;11971;51.148;4.104;2023-08-06T11:38:43;116.38;;;37.50;;
23586;SDS011;11971;51.148;4.104;2023-08-06T11:41:10;113.93;;;37.85;;
23586;SDS011;11971;51.148;4.104;2023-08-06T11:43:39;111.10;;;37.75;;
23586;SDS011;11971;51.148;4.104;2023-08-06T11:46:06;113.65;;;37.58;;
23586;SDS011;11971;51.148;4.104;2023-08-06T11:48:45;117.88;;;37.85;;
23586;SDS011;11971;51.148;4.104;2023-08-06T11:51:17;118.90;;;38.35;;
23586;SDS011;11971;51.148;4.104;2023-08-06T11:53:46;115.00;;;38.23;;
23586;SDS011;11971;51.148;4.104;2023-08-06T11:58:45;111.72;;;37.67;;
23586;SDS011;11971;51.148;4.104;2023-08-06T12:01:13;113.32;;;37.63;;
23586;SDS011;11971;51.148;4.104;2023-08-06T12:03:40;113.00;;;37.67;;
23586;SDS011;11971;51.148;4.104;2023-08-06T12:06:07;115.43;;;37.55;;
23586;SDS011;11971;51.148;4.104;2023-08-06T12:08:34;110.60;;;37.53;;
23586;SDS011;11971;51.148;4.104;2023-08-06T12:11:02;117.22;;;37.65;;
23586;SDS011;11971;51.148;4.104;2023-08-06T12:13:29;115.63;;;38.33;;
23586;SDS011;11971;51.148;4.104;2023-08-06T12:15:57;114.05;;;37.42;;
23586;SDS011;11971;51.148;4.104;2023-08-06T12:18:26;114.40;;;37.70;;
23586;SDS011;11971;51.148;4.104;2023-08-06T12:21:02;113.72;;;37.55;;
23586;SDS011;11971;51.148;4.104;2023-08-06T12:23:29;112.65;;;36.88;;
23586;SDS011;11971;51.148;4.104;2023-08-06T12:25:58;114.95;;;37.22;;
23586;SDS011;11971;51.148;4.104;2023-08-06T12:28:29;112.77;;;37.43;;
23586;SDS011;11971;51.148;4.104;2023-08-06T12:30:56;110.18;;;37.38;;
23586;SDS011;11971;51.148;4.104;2023-08-06T12:33:24;113.57;;;37.33;;
23586;SDS011;11971;51.148;4.104;2023-08-06T12:35:51;114.65;;;37.92;;
23586;SDS011;11971;51.148;4.104;2023-08-06T12:38:20;113.65;;;37.42;;
23586;SDS011;11971;51.148;4.104;2023-08-06T12:40:46;114.05;;;37.45;;
23586;SDS011;11971;51.148;4.104;2023-08-06T12:43:13;119.28;;;37.95;;
23586;SDS011;11971;51.148;4.104;2023-08-06T12:45:40;119.07;;;37.65;;
23586;SDS011;11971;51.148;4.104;2023-08-06T12:48:09;113.80;;;38.17;;
23586;SDS011;11971;51.148;4.104;2023-08-06T12:50:39;116.13;;;38.50;;
23586;SDS011;11971;51.148;4.104;2023-08-06T12:53:06;122.53;;;38.78;;
23586;SDS011;11971;51.148;4.104;2023-08-06T12:55:34;120.25;;;37.72;;
23586;SDS011;11971;51.148;4.104;2023-08-06T12:58:01;112.70;;;37.80;;
23586;SDS011;11971;51.148;4.104;2023-08-06T13:00:27;109.85;;;37.28;;
23586;SDS011;11971;51.148;4.104;2023-08-06T13:02:54;111.55;;;37.50;;
23586;SDS011;11971;51.148;4.104;2023-08-06T13:05:22;112.30;;;37.83;;
23586;SDS011;11971;51.148;4.104;2023-08-06T13:07:50;119.80;;;37.85;;
23586;SDS011;11971;51.148;4.104;2023-08-06T13:10:29;114.13;;;37.58;;
23586;SDS011;11971;51.148;4.104;2023-08-06T13:12:56;110.97;;;37.45;;
23586;SDS011;11971;51.148;4.104;2023-08-06T13:15:23;115.28;;;37.15;;
23586;SDS011;11971;51.148;4.104;2023-08-06T13:17:50;113.30;;;37.38;;
23586;SDS011;11971;51.148;4.104;2023-08-06T13:20:17;112.28;;;37.20;;
23586;SDS011;11971;51.148;4.104;2023-08-06T13:22:46;121.78;;;37.38;;
23586;SDS011;11971;51.148;4.104;2023-08-06T13:25:15;113.32;;;36.92;;
23586;SDS011;11971;51.148;4.104;2023-08-06T13:27:42;117.10;;;37.50;;
23586;SDS011;11971;51.148;4.104;2023-08-06T13:30:11;118.00;;;37.28;;
23586;SDS011;11971;51.148;4.104;2023-08-06T13:32:37;112.55;;;37.42;;
23586;SDS011;11971;51.148;4.104;2023-08-06T13:35:04;113.18;;;37.00;;
23586;SDS011;11971;51.148;4.104;2023-08-06T13:37:31;118.97;;;38.05;;
23586;SDS011;11971;51.148;4.104;2023-08-06T13:40:00;119.55;;;37.70;;
23586;SDS011;11971;51.148;4.104;2023-08-06T13:44:54;116.78;;;37.75;;
23586;SDS011;11971;51.148;4.104;2023-08-06T13:47:27;111.45;;;37.00;;
23586;SDS011;11971;51.148;4.104;2023-08-06T13:49:54;113.43;;;37.22;;
23586;SDS011;11971;51.148;4.104;2023-08-06T13:52:20;110.47;;;37.60;;
23586;SDS011;11971;51.148;4.104;2023-08-06T13:54:47;115.10;;;37.08;;
23586;SDS011;11971;51.148;4.104;2023-08-06T13:57:15;110.90;;;37.25;;
23586;SDS011;11971;51.148;4.104;2023-08-06T13:59:43;116.88;;;37.53;;
23586;SDS011;11971;51.148;4.104;2023-08-06T14:02:10;114.15;;;38.13;;
23586;SDS011;11971;51.148;4.104;2023-08-06T14:04:36;121.35;;;38.03;;
23586;SDS011;11971;51.148;4.104;2023-08-06T14:07:04;112.40;;;37.25;;
23586;SDS011;11971;51.148;4.104;2023-08-06T14:09:31;113.85;;;37.47;;
23586;SDS011;11971;51.148;4.104;2023-08-06T14:11:59;115.97;;;37.58;;
23586;SDS011;11971;51.148;4.104;2023-08-06T14:14:30;116.30;;;37.83;;
23586;SDS011;11971;51.148;4.104;2023-08-06T14:16:57;115.87;;;37.97;;
23586;SDS011;11971;51.148;4.104;2023-08-06T14:19:23;113.75;;;37.47;;
23586;SDS011;11971;51.148;4.104;2023-08-06T14:21:50;115.25;;;37.83;;
23586;SDS011;11971;51.148;4.104;2023-08-06T14:24:17;113.85;;;37.58;;
23586;SDS011;11971;51.148;4.104;2023-08-06T14:26:44;115.75;;;37.70;;
23586;SDS011;11971;51.148;4.104;2023-08-06T14:29:11;120.85;;;37.75;;
23586;SDS011;11971;51.148;4.104;2023-08-06T14:31:40;112.47;;;37.45;;
23586;SDS011;11971;51.148;4.104;2023-08-06T14:34:07;111.53;;;37.47;;
23586;SDS011;11971;51.148;4.104;2023-08-06T14:36:33;114.97;;;38.03;;
23586;SDS011;11971;51.148;4.104;2023-08-06T14:39:00;111.53;;;37.75;;
23586;SDS011;11971;51.148;4.104;2023-08-06T14:41:27;107.68;;;37.10;;
23586;SDS011;11971;51.148;4.104;2023-08-06T14:43:54;110.60;;;37.53;;
23586;SDS011;11971;51.148;4.104;2023-08-06T14:46:20;110.47;;;37.38;;
23586;SDS011;11971;51.148;4.104;2023-08-06T14:48:49;110.70;;;37.35;;